CAL112 RCTP-RJOA
Flight info
| Callsign | CAL112 |
|---|---|
| Flight time | 1h 49m |
| Altitude | 35000 |
| Route | MOLKA1A MOLKA M750 MOMPA Y451 HKC Y45 MARCO |
| Aircraft | B738/M-SDE2E3FGHIRWXY/LB1 |
Departure
| Time | 2026-04-25 15:42 |
|---|---|
| Airport | Taiwan Taoyuan International Airport (RCTP) |
Arrival
| Time | 2026-04-25 17:32 |
|---|---|
| Airport | Hiroshima Airport (RJOA) |
| Time | Latitude | Longitude | Altitude | Speed | Heading |
|---|---|---|---|---|---|
| 2026-04-25 14:52 | 25.07390 | 121.23513 | 98 ft | 0 kts | 319° |
| 2026-04-25 15:29 | 25.07381 | 121.23522 | 98 ft | 2 kts | 317° |
| 2026-04-25 15:29 | 25.07368 | 121.23535 | 98 ft | 2 kts | 316° |
| 2026-04-25 15:30 | 25.07357 | 121.23547 | 97 ft | 2 kts | 314° |
| 2026-04-25 15:30 | 25.07346 | 121.23561 | 97 ft | 2 kts | 310° |
| 2026-04-25 15:30 | 25.07336 | 121.23575 | 99 ft | 2 kts | 302° |
| 2026-04-25 15:30 | 25.07329 | 121.23591 | 97 ft | 2 kts | 282° |
| 2026-04-25 15:31 | 25.07329 | 121.23609 | 98 ft | 2 kts | 237° |
| 2026-04-25 15:31 | 25.07333 | 121.23614 | 98 ft | 0 kts | 229° |
| 2026-04-25 15:34 | 25.07332 | 121.23614 | 98 ft | 0 kts | 227° |
| 2026-04-25 15:34 | 25.07331 | 121.23612 | 98 ft | 1 kts | 225° |
| 2026-04-25 15:35 | 25.07228 | 121.23487 | 99 ft | 13 kts | 228° |
| 2026-04-25 15:35 | 25.07167 | 121.23409 | 99 ft | 14 kts | 230° |
| 2026-04-25 15:35 | 25.07100 | 121.23320 | 98 ft | 16 kts | 230° |
| 2026-04-25 15:36 | 25.06955 | 121.23139 | 98 ft | 15 kts | 229° |
| 2026-04-25 15:36 | 25.06887 | 121.23053 | 99 ft | 14 kts | 229° |
| 2026-04-25 15:36 | 25.06821 | 121.22970 | 98 ft | 15 kts | 229° |
| 2026-04-25 15:37 | 25.06744 | 121.22873 | 97 ft | 20 kts | 229° |
| 2026-04-25 15:37 | 25.06643 | 121.22746 | 100 ft | 24 kts | 230° |
| 2026-04-25 15:37 | 25.06533 | 121.22602 | 99 ft | 24 kts | 229° |
| 2026-04-25 15:37 | 25.06427 | 121.22470 | 99 ft | 23 kts | 229° |
| 2026-04-25 15:38 | 25.06325 | 121.22340 | 99 ft | 22 kts | 229° |
| 2026-04-25 15:38 | 25.06247 | 121.22250 | 99 ft | 10 kts | 206° |
| 2026-04-25 15:38 | 25.06204 | 121.22253 | 98 ft | 10 kts | 150° |
| 2026-04-25 15:38 | 25.06188 | 121.22267 | 98 ft | 0 kts | 136° |
| 2026-04-25 15:40 | 25.06187 | 121.22268 | 98 ft | 1 kts | 136° |
| 2026-04-25 15:40 | 25.06151 | 121.22306 | 96 ft | 14 kts | 136° |
| 2026-04-25 15:41 | 25.06116 | 121.22396 | 95 ft | 14 kts | 65° |
| 2026-04-25 15:41 | 25.06160 | 121.22450 | 95 ft | 0 kts | 47° |
| 2026-04-25 15:41 | 25.06234 | 121.22545 | 94 ft | 48 kts | 49° |
| 2026-04-25 15:42 | 25.06609 | 121.23023 | 92 ft | 115 kts | 50° |
| 2026-04-25 15:42 | 25.07248 | 121.23858 | 106 ft | 166 kts | 52° |
| 2026-04-25 15:42 | 25.08056 | 121.24887 | 496 ft | 189 kts | 49° |
| 2026-04-25 15:42 | 25.08979 | 121.26003 | 1072 ft | 200 kts | 50° |
| 2026-04-25 15:43 | 25.09901 | 121.27216 | 1389 ft | 218 kts | 52° |
| 2026-04-25 15:43 | 25.10896 | 121.28550 | 1719 ft | 231 kts | 52° |
| 2026-04-25 15:43 | 25.11966 | 121.29946 | 2003 ft | 253 kts | 49° |
| 2026-04-25 15:43 | 25.13206 | 121.31387 | 2627 ft | 260 kts | 46° |
| 2026-04-25 15:44 | 25.14473 | 121.32825 | 2953 ft | 261 kts | 45° |
| 2026-04-25 15:44 | 25.15743 | 121.34266 | 2988 ft | 263 kts | 45° |
| 2026-04-25 15:44 | 25.17017 | 121.35718 | 2998 ft | 263 kts | 45° |
| 2026-04-25 15:44 | 25.18285 | 121.37168 | 3000 ft | 263 kts | 45° |
| 2026-04-25 15:45 | 25.19557 | 121.38628 | 3006 ft | 264 kts | 46° |
| 2026-04-25 15:45 | 25.20829 | 121.40092 | 3017 ft | 264 kts | 45° |
| 2026-04-25 15:45 | 25.22105 | 121.41561 | 3015 ft | 265 kts | 45° |
| 2026-04-25 15:45 | 25.22947 | 121.42530 | 3014 ft | 265 kts | 45° |
| 2026-04-25 15:46 | 25.24656 | 121.44498 | 3003 ft | 265 kts | 46° |
| 2026-04-25 15:46 | 25.25932 | 121.45969 | 3009 ft | 264 kts | 46° |
| 2026-04-25 15:46 | 25.27202 | 121.47434 | 3014 ft | 262 kts | 45° |
| 2026-04-25 15:46 | 25.28376 | 121.48915 | 3011 ft | 258 kts | 59° |
| 2026-04-25 15:47 | 25.28898 | 121.50786 | 3097 ft | 257 kts | 85° |
| 2026-04-25 15:47 | 25.28754 | 121.52769 | 3275 ft | 262 kts | 92° |
| 2026-04-25 15:47 | 25.28979 | 121.54770 | 3738 ft | 268 kts | 76° |
| 2026-04-25 15:47 | 25.29420 | 121.56797 | 4398 ft | 274 kts | 75° |
| 2026-04-25 15:48 | 25.29864 | 121.58882 | 5105 ft | 280 kts | 76° |
| 2026-04-25 15:48 | 25.30306 | 121.61011 | 5754 ft | 287 kts | 77° |
| 2026-04-25 15:48 | 25.30749 | 121.63186 | 6412 ft | 294 kts | 78° |
| 2026-04-25 15:48 | 25.31197 | 121.65413 | 7040 ft | 299 kts | 78° |
| 2026-04-25 15:49 | 25.31644 | 121.67665 | 7746 ft | 302 kts | 78° |
| 2026-04-25 15:49 | 25.32094 | 121.69946 | 8422 ft | 305 kts | 79° |
| 2026-04-25 15:49 | 25.32542 | 121.72234 | 9107 ft | 309 kts | 79° |
| 2026-04-25 15:49 | 25.32999 | 121.74572 | 9796 ft | 313 kts | 79° |
| 2026-04-25 15:50 | 25.33462 | 121.76947 | 10332 ft | 322 kts | 79° |
| 2026-04-25 15:50 | 25.33951 | 121.79464 | 10491 ft | 344 kts | 79° |
| 2026-04-25 15:50 | 25.34464 | 121.82109 | 10833 ft | 357 kts | 79° |
| 2026-04-25 15:50 | 25.34990 | 121.84820 | 11391 ft | 363 kts | 79° |
| 2026-04-25 15:51 | 25.35523 | 121.87564 | 12024 ft | 367 kts | 78° |
| 2026-04-25 15:51 | 25.35878 | 121.89398 | 12439 ft | 370 kts | 78° |
| 2026-04-25 15:51 | 25.36606 | 121.93156 | 13249 ft | 377 kts | 78° |
| 2026-04-25 15:51 | 25.37159 | 121.96019 | 13862 ft | 383 kts | 78° |
| 2026-04-25 15:52 | 25.37719 | 121.98918 | 14424 ft | 387 kts | 78° |
| 2026-04-25 15:52 | 25.38283 | 122.01845 | 15021 ft | 391 kts | 78° |
| 2026-04-25 15:52 | 25.38853 | 122.04805 | 15596 ft | 396 kts | 78° |
| 2026-04-25 15:52 | 25.39430 | 122.07804 | 16196 ft | 400 kts | 78° |
| 2026-04-25 15:53 | 25.40005 | 122.10797 | 16778 ft | 405 kts | 78° |
| 2026-04-25 15:53 | 25.40594 | 122.13865 | 17347 ft | 410 kts | 78° |
| 2026-04-25 15:53 | 25.41189 | 122.16973 | 17911 ft | 415 kts | 78° |
| 2026-04-25 15:53 | 25.41792 | 122.20120 | 18456 ft | 420 kts | 78° |
| 2026-04-25 15:54 | 25.42551 | 122.23260 | 18926 ft | 424 kts | 71° |
| 2026-04-25 15:54 | 25.43549 | 122.26346 | 19418 ft | 428 kts | 68° |
| 2026-04-25 15:54 | 25.44645 | 122.29435 | 19895 ft | 433 kts | 68° |
| 2026-04-25 15:54 | 25.45751 | 122.32507 | 20367 ft | 438 kts | 68° |
| 2026-04-25 15:55 | 25.46869 | 122.35658 | 20838 ft | 442 kts | 69° |
| 2026-04-25 15:55 | 25.47975 | 122.38840 | 21418 ft | 443 kts | 69° |
| 2026-04-25 15:55 | 25.49069 | 122.42049 | 21865 ft | 448 kts | 69° |
| 2026-04-25 15:55 | 25.50164 | 122.45299 | 22278 ft | 454 kts | 70° |
| 2026-04-25 15:56 | 25.51267 | 122.48593 | 22708 ft | 458 kts | 70° |
| 2026-04-25 15:56 | 25.52382 | 122.51934 | 23153 ft | 463 kts | 70° |
| 2026-04-25 15:56 | 25.53503 | 122.55297 | 23611 ft | 467 kts | 70° |
| 2026-04-25 15:56 | 25.54640 | 122.58708 | 23856 ft | 475 kts | 70° |
| 2026-04-25 15:57 | 25.55788 | 122.62151 | 24219 ft | 478 kts | 70° |
| 2026-04-25 15:57 | 25.56936 | 122.65597 | 24744 ft | 476 kts | 70° |
| 2026-04-25 15:57 | 25.58084 | 122.69044 | 25166 ft | 478 kts | 71° |
| 2026-04-25 15:57 | 25.59238 | 122.72513 | 25511 ft | 482 kts | 71° |
| 2026-04-25 15:58 | 25.60403 | 122.76018 | 25849 ft | 486 kts | 71° |
| 2026-04-25 15:58 | 25.61557 | 122.79494 | 26204 ft | 489 kts | 71° |
| 2026-04-25 15:58 | 25.62733 | 122.83036 | 26580 ft | 491 kts | 71° |
| 2026-04-25 15:58 | 25.63915 | 122.86603 | 26944 ft | 494 kts | 71° |
| 2026-04-25 15:59 | 25.65111 | 122.90182 | 27275 ft | 496 kts | 71° |
| 2026-04-25 15:59 | 25.66321 | 122.93773 | 27640 ft | 499 kts | 71° |
| 2026-04-25 15:59 | 25.67544 | 122.97387 | 27982 ft | 501 kts | 71° |
| 2026-04-25 15:59 | 25.68773 | 123.01021 | 28330 ft | 505 kts | 71° |
| 2026-04-25 16:00 | 25.70010 | 123.04688 | 28575 ft | 509 kts | 71° |
| 2026-04-25 16:00 | 25.70410 | 123.05876 | 28677 ft | 510 kts | 71° |
| 2026-04-25 16:00 | 25.72497 | 123.12081 | 29237 ft | 513 kts | 71° |
| 2026-04-25 16:00 | 25.73727 | 123.15748 | 29573 ft | 515 kts | 71° |
| 2026-04-25 16:01 | 25.74981 | 123.19488 | 29877 ft | 517 kts | 71° |
| 2026-04-25 16:01 | 25.76236 | 123.23237 | 30173 ft | 520 kts | 71° |
| 2026-04-25 16:01 | 25.77496 | 123.27004 | 30428 ft | 522 kts | 71° |
| 2026-04-25 16:01 | 25.78759 | 123.30785 | 30695 ft | 524 kts | 71° |
| 2026-04-25 16:02 | 25.80026 | 123.34578 | 30958 ft | 525 kts | 71° |
| 2026-04-25 16:02 | 25.81295 | 123.38382 | 31215 ft | 527 kts | 71° |
| 2026-04-25 16:02 | 25.82570 | 123.42208 | 31460 ft | 528 kts | 71° |
| 2026-04-25 16:02 | 25.83845 | 123.46041 | 31703 ft | 531 kts | 71° |
| 2026-04-25 16:03 | 25.85132 | 123.49911 | 31904 ft | 534 kts | 71° |
| 2026-04-25 16:03 | 25.86430 | 123.53776 | 32114 ft | 535 kts | 69° |
| 2026-04-25 16:03 | 25.88268 | 123.57357 | 32370 ft | 536 kts | 50° |
| 2026-04-25 16:03 | 25.90814 | 123.60267 | 32735 ft | 528 kts | 34° |
| 2026-04-25 16:04 | 25.93906 | 123.62448 | 33100 ft | 516 kts | 20° |
| 2026-04-25 16:04 | 25.97102 | 123.64118 | 33429 ft | 513 kts | 18° |
| 2026-04-25 16:04 | 26.00352 | 123.65740 | 33690 ft | 513 kts | 18° |
| 2026-04-25 16:04 | 26.03616 | 123.67360 | 33990 ft | 513 kts | 18° |
| 2026-04-25 16:05 | 26.06872 | 123.68997 | 34236 ft | 512 kts | 18° |
| 2026-04-25 16:05 | 26.10119 | 123.70656 | 34389 ft | 515 kts | 19° |
| 2026-04-25 16:05 | 26.16640 | 123.74052 | 34787 ft | 516 kts | 19° |
| 2026-04-25 16:06 | 26.19880 | 123.75755 | 35055 ft | 515 kts | 19° |
| 2026-04-25 16:06 | 26.23125 | 123.77464 | 35288 ft | 515 kts | 19° |
| 2026-04-25 16:06 | 26.26324 | 123.79147 | 35522 ft | 515 kts | 19° |
| 2026-04-25 16:06 | 26.29567 | 123.80851 | 35753 ft | 515 kts | 19° |
| 2026-04-25 16:07 | 26.32806 | 123.82553 | 35979 ft | 514 kts | 19° |
| 2026-04-25 16:07 | 26.39287 | 123.85960 | 36361 ft | 515 kts | 19° |
| 2026-04-25 16:07 | 26.42529 | 123.87666 | 36559 ft | 515 kts | 19° |
| 2026-04-25 16:08 | 26.45768 | 123.89372 | 36767 ft | 514 kts | 19° |
| 2026-04-25 16:08 | 26.49007 | 123.91078 | 36986 ft | 514 kts | 19° |
| 2026-04-25 16:08 | 26.52246 | 123.92786 | 37067 ft | 516 kts | 19° |
| 2026-04-25 16:09 | 26.58760 | 123.96224 | 37036 ft | 517 kts | 19° |
| 2026-04-25 16:09 | 26.65167 | 123.99745 | 37041 ft | 520 kts | 29° |
| 2026-04-25 16:09 | 26.67934 | 124.02385 | 37070 ft | 525 kts | 47° |
| 2026-04-25 16:10 | 26.69538 | 124.04484 | 37085 ft | 525 kts | 49° |
| 2026-04-25 16:10 | 26.74870 | 124.11883 | 37062 ft | 526 kts | 50° |
| 2026-04-25 16:11 | 26.79491 | 124.18232 | 37056 ft | 526 kts | 49° |
| 2026-04-25 16:11 | 26.84173 | 124.24538 | 37047 ft | 527 kts | 49° |
| 2026-04-25 16:12 | 26.88876 | 124.30854 | 37087 ft | 528 kts | 49° |
| 2026-04-25 16:12 | 26.93582 | 124.37199 | 37065 ft | 530 kts | 49° |
| 2026-04-25 16:13 | 26.98279 | 124.43543 | 37058 ft | 532 kts | 49° |
| 2026-04-25 16:13 | 27.03020 | 124.49934 | 37036 ft | 533 kts | 49° |
| 2026-04-25 16:14 | 27.07764 | 124.56327 | 37083 ft | 534 kts | 49° |
| 2026-04-25 16:14 | 27.12522 | 124.62753 | 37067 ft | 535 kts | 49° |
| 2026-04-25 16:15 | 27.17274 | 124.69183 | 37054 ft | 535 kts | 49° |
| 2026-04-25 16:15 | 27.22015 | 124.75609 | 37029 ft | 534 kts | 50° |
| 2026-04-25 16:16 | 27.26720 | 124.81994 | 37052 ft | 533 kts | 50° |
| 2026-04-25 16:16 | 27.31444 | 124.88415 | 37065 ft | 532 kts | 50° |
| 2026-04-25 16:17 | 27.36162 | 124.94839 | 37054 ft | 531 kts | 50° |
| 2026-04-25 16:17 | 27.40869 | 125.01251 | 37029 ft | 531 kts | 50° |
| 2026-04-25 16:18 | 27.45599 | 125.07638 | 37049 ft | 531 kts | 49° |
| 2026-04-25 16:18 | 27.50301 | 125.13972 | 37069 ft | 530 kts | 49° |
| 2026-04-25 16:19 | 27.55037 | 125.20367 | 37060 ft | 530 kts | 50° |
| 2026-04-25 16:19 | 27.59756 | 125.26756 | 37066 ft | 530 kts | 50° |
| 2026-04-25 16:20 | 27.66813 | 125.36335 | 37058 ft | 531 kts | 50° |
| 2026-04-25 16:21 | 27.73908 | 125.45985 | 37059 ft | 533 kts | 50° |
| 2026-04-25 16:21 | 27.78645 | 125.52440 | 37064 ft | 533 kts | 50° |
| 2026-04-25 16:22 | 27.83381 | 125.58904 | 37057 ft | 534 kts | 50° |
| 2026-04-25 16:22 | 27.88121 | 125.65381 | 37060 ft | 534 kts | 50° |
| 2026-04-25 16:23 | 27.92858 | 125.71866 | 37055 ft | 535 kts | 50° |
| 2026-04-25 16:23 | 27.97570 | 125.78325 | 37042 ft | 536 kts | 50° |
| 2026-04-25 16:24 | 28.02310 | 125.84834 | 37059 ft | 535 kts | 50° |
| 2026-04-25 16:24 | 28.07051 | 125.91353 | 37053 ft | 535 kts | 50° |
| 2026-04-25 16:25 | 28.11782 | 125.97869 | 37092 ft | 535 kts | 50° |
| 2026-04-25 16:25 | 28.16513 | 126.04394 | 37059 ft | 536 kts | 50° |
| 2026-04-25 16:26 | 28.21221 | 126.10898 | 37054 ft | 536 kts | 50° |
| 2026-04-25 16:26 | 28.25178 | 126.16373 | 37053 ft | 535 kts | 50° |
| 2026-04-25 16:27 | 28.29868 | 126.22870 | 37069 ft | 535 kts | 50° |
| 2026-04-25 16:27 | 28.34580 | 126.29407 | 37054 ft | 535 kts | 50° |
| 2026-04-25 16:28 | 28.39290 | 126.35953 | 37054 ft | 535 kts | 50° |
| 2026-04-25 16:28 | 28.43997 | 126.42504 | 37051 ft | 534 kts | 50° |
| 2026-04-25 16:29 | 28.48697 | 126.49056 | 37054 ft | 534 kts | 51° |
| 2026-04-25 16:29 | 28.53389 | 126.55606 | 37045 ft | 534 kts | 50° |
| 2026-04-25 16:30 | 28.58053 | 126.62128 | 37053 ft | 534 kts | 51° |
| 2026-04-25 16:30 | 28.62744 | 126.68698 | 37084 ft | 535 kts | 51° |
| 2026-04-25 16:31 | 28.67448 | 126.75296 | 37027 ft | 537 kts | 51° |
| 2026-04-25 16:31 | 28.72149 | 126.81901 | 37047 ft | 537 kts | 51° |
| 2026-04-25 16:32 | 28.76853 | 126.88521 | 37053 ft | 538 kts | 51° |
| 2026-04-25 16:32 | 28.81567 | 126.95164 | 37049 ft | 539 kts | 51° |
| 2026-04-25 16:33 | 28.86280 | 127.01817 | 37027 ft | 539 kts | 51° |
| 2026-04-25 16:33 | 28.90961 | 127.08437 | 37042 ft | 539 kts | 51° |
| 2026-04-25 16:34 | 28.95675 | 127.15113 | 37064 ft | 540 kts | 51° |
| 2026-04-25 16:34 | 29.00397 | 127.21810 | 37048 ft | 541 kts | 51° |
| 2026-04-25 16:35 | 29.05113 | 127.28511 | 37035 ft | 541 kts | 51° |
| 2026-04-25 16:35 | 29.09832 | 127.35226 | 37064 ft | 541 kts | 51° |
| 2026-04-25 16:36 | 29.14548 | 127.41948 | 37040 ft | 542 kts | 51° |
| 2026-04-25 16:36 | 29.19236 | 127.48642 | 37008 ft | 542 kts | 51° |
| 2026-04-25 16:37 | 29.23948 | 127.55382 | 37027 ft | 541 kts | 51° |
| 2026-04-25 16:37 | 29.28654 | 127.62121 | 37028 ft | 542 kts | 51° |
| 2026-04-25 16:38 | 29.33364 | 127.68879 | 37039 ft | 542 kts | 51° |
| 2026-04-25 16:38 | 29.38038 | 127.75601 | 37016 ft | 542 kts | 51° |
| 2026-04-25 16:39 | 29.42737 | 127.82360 | 37042 ft | 542 kts | 51° |
| 2026-04-25 16:39 | 29.47438 | 127.89140 | 37026 ft | 543 kts | 51° |
| 2026-04-25 16:40 | 29.52144 | 127.95937 | 36988 ft | 543 kts | 51° |
| 2026-04-25 16:40 | 29.56843 | 128.02726 | 37050 ft | 543 kts | 51° |
| 2026-04-25 16:41 | 29.61544 | 128.09523 | 37023 ft | 543 kts | 51° |
| 2026-04-25 16:41 | 29.68568 | 128.19703 | 36988 ft | 544 kts | 51° |
| 2026-04-25 16:42 | 29.73262 | 128.26523 | 37029 ft | 544 kts | 51° |
| 2026-04-25 16:42 | 29.77959 | 128.33359 | 37014 ft | 544 kts | 51° |
| 2026-04-25 16:43 | 29.82653 | 128.40200 | 37012 ft | 544 kts | 51° |
| 2026-04-25 16:43 | 29.87342 | 128.47048 | 37037 ft | 544 kts | 52° |
| 2026-04-25 16:44 | 29.92031 | 128.53906 | 37018 ft | 544 kts | 52° |
| 2026-04-25 16:44 | 29.96711 | 128.60762 | 37008 ft | 544 kts | 52° |
| 2026-04-25 16:45 | 30.01388 | 128.67627 | 36985 ft | 543 kts | 52° |
| 2026-04-25 16:45 | 30.06015 | 128.74429 | 37003 ft | 541 kts | 52° |
| 2026-04-25 16:46 | 30.10688 | 128.81311 | 37014 ft | 540 kts | 52° |
| 2026-04-25 16:46 | 30.13762 | 128.85844 | 37007 ft | 540 kts | 52° |
| 2026-04-25 16:47 | 30.19920 | 128.94943 | 37010 ft | 540 kts | 52° |
| 2026-04-25 16:47 | 30.24547 | 129.01790 | 37015 ft | 540 kts | 52° |
| 2026-04-25 16:48 | 30.29178 | 129.08653 | 37010 ft | 541 kts | 52° |
| 2026-04-25 16:48 | 30.33783 | 129.15493 | 37012 ft | 543 kts | 52° |
| 2026-04-25 16:49 | 30.38432 | 129.22406 | 37023 ft | 544 kts | 52° |
| 2026-04-25 16:49 | 30.43097 | 129.29356 | 37019 ft | 546 kts | 52° |
| 2026-04-25 16:50 | 30.47768 | 129.36329 | 37003 ft | 549 kts | 52° |
| 2026-04-25 16:50 | 30.52453 | 129.43335 | 37019 ft | 550 kts | 52° |
| 2026-04-25 16:51 | 30.57118 | 129.50325 | 37018 ft | 551 kts | 52° |
| 2026-04-25 16:51 | 30.61020 | 129.56178 | 37050 ft | 553 kts | 52° |
| 2026-04-25 16:52 | 30.66525 | 129.64454 | 37017 ft | 554 kts | 52° |
| 2026-04-25 16:52 | 30.71238 | 129.71553 | 37024 ft | 554 kts | 52° |
| 2026-04-25 16:53 | 30.78258 | 129.82151 | 36999 ft | 554 kts | 52° |
| 2026-04-25 16:54 | 30.82982 | 129.89203 | 37015 ft | 552 kts | 47° |
| 2026-04-25 16:54 | 30.88669 | 129.95097 | 37056 ft | 544 kts | 29° |
| 2026-04-25 16:55 | 30.95011 | 129.99908 | 37019 ft | 543 kts | 28° |
| 2026-04-25 16:55 | 31.01319 | 130.04671 | 37009 ft | 543 kts | 28° |
| 2026-04-25 16:56 | 31.07621 | 130.09534 | 37035 ft | 543 kts | 29° |
| 2026-04-25 16:56 | 31.13905 | 130.14439 | 37038 ft | 543 kts | 29° |
| 2026-04-25 16:57 | 31.20196 | 130.19361 | 37037 ft | 543 kts | 29° |
| 2026-04-25 16:57 | 31.26491 | 130.24287 | 37037 ft | 545 kts | 29° |
| 2026-04-25 16:58 | 31.32794 | 130.29224 | 37035 ft | 545 kts | 29° |
| 2026-04-25 16:58 | 31.39089 | 130.34161 | 37060 ft | 545 kts | 29° |
| 2026-04-25 16:59 | 31.45352 | 130.39083 | 37041 ft | 546 kts | 29° |
| 2026-04-25 16:59 | 31.51652 | 130.44043 | 37043 ft | 546 kts | 29° |
| 2026-04-25 17:00 | 31.56930 | 130.48205 | 36997 ft | 546 kts | 29° |
| 2026-04-25 17:00 | 31.64235 | 130.53975 | 37061 ft | 544 kts | 29° |
| 2026-04-25 17:01 | 31.70522 | 130.58945 | 37116 ft | 545 kts | 28° |
| 2026-04-25 17:01 | 31.76928 | 130.63679 | 37073 ft | 544 kts | 26° |
| 2026-04-25 17:02 | 31.83419 | 130.68290 | 37060 ft | 545 kts | 26° |
| 2026-04-25 17:02 | 31.89886 | 130.72947 | 37072 ft | 546 kts | 26° |
| 2026-04-25 17:03 | 31.96351 | 130.77662 | 37080 ft | 546 kts | 26° |
| 2026-04-25 17:03 | 32.02776 | 130.82362 | 37062 ft | 545 kts | 26° |
| 2026-04-25 17:04 | 32.09226 | 130.87082 | 37053 ft | 541 kts | 26° |
| 2026-04-25 17:04 | 32.12388 | 130.89390 | 37033 ft | 525 kts | 26° |
| 2026-04-25 17:04 | 32.15458 | 130.91619 | 36993 ft | 509 kts | 25° |
| 2026-04-25 17:05 | 32.21460 | 130.95952 | 37112 ft | 505 kts | 25° |
| 2026-04-25 17:05 | 32.30531 | 131.02563 | 37105 ft | 520 kts | 25° |
| 2026-04-25 17:06 | 32.36734 | 131.07036 | 37121 ft | 527 kts | 26° |
| 2026-04-25 17:06 | 32.43036 | 131.11646 | 37106 ft | 536 kts | 26° |
| 2026-04-25 17:07 | 32.49424 | 131.16353 | 37095 ft | 545 kts | 26° |
| 2026-04-25 17:07 | 32.55895 | 131.21190 | 37108 ft | 553 kts | 27° |
| 2026-04-25 17:08 | 32.62386 | 131.26048 | 37083 ft | 545 kts | 28° |
| 2026-04-25 17:08 | 32.65516 | 131.28529 | 36902 ft | 539 kts | 28° |
| 2026-04-25 17:08 | 32.68609 | 131.30899 | 36512 ft | 532 kts | 25° |
| 2026-04-25 17:09 | 32.71757 | 131.33195 | 35995 ft | 531 kts | 24° |
| 2026-04-25 17:09 | 32.74911 | 131.35471 | 35503 ft | 530 kts | 25° |
| 2026-04-25 17:09 | 32.78035 | 131.37788 | 35125 ft | 528 kts | 25° |
| 2026-04-25 17:09 | 32.81134 | 131.40095 | 34764 ft | 524 kts | 25° |
| 2026-04-25 17:10 | 32.84215 | 131.42386 | 34432 ft | 521 kts | 24° |
| 2026-04-25 17:10 | 32.87293 | 131.44682 | 34009 ft | 520 kts | 24° |
| 2026-04-25 17:10 | 32.90363 | 131.46935 | 33650 ft | 516 kts | 23° |
| 2026-04-25 17:10 | 32.93411 | 131.49162 | 33346 ft | 511 kts | 23° |
| 2026-04-25 17:11 | 32.96420 | 131.51364 | 33021 ft | 505 kts | 23° |
| 2026-04-25 17:11 | 32.99405 | 131.53558 | 32697 ft | 502 kts | 24° |
| 2026-04-25 17:11 | 33.02370 | 131.55730 | 32338 ft | 497 kts | 23° |
| 2026-04-25 17:11 | 33.05305 | 131.57892 | 31992 ft | 494 kts | 23° |
| 2026-04-25 17:12 | 33.08167 | 131.60044 | 31685 ft | 491 kts | 24° |
| 2026-04-25 17:12 | 33.11059 | 131.62168 | 31355 ft | 484 kts | 22° |
| 2026-04-25 17:12 | 33.13925 | 131.64262 | 31014 ft | 481 kts | 22° |
| 2026-04-25 17:12 | 33.16755 | 131.66375 | 30669 ft | 478 kts | 23° |
| 2026-04-25 17:13 | 33.18618 | 131.67777 | 30470 ft | 475 kts | 23° |
| 2026-04-25 17:13 | 33.20503 | 131.69193 | 30270 ft | 472 kts | 23° |
| 2026-04-25 17:13 | 33.24259 | 131.71662 | 29820 ft | 457 kts | 14° |
| 2026-04-25 17:13 | 33.28125 | 131.73664 | 29335 ft | 448 kts | 12° |
| 2026-04-25 17:14 | 33.30024 | 131.74596 | 29131 ft | 444 kts | 12° |
| 2026-04-25 17:14 | 33.33783 | 131.76435 | 28749 ft | 437 kts | 12° |
| 2026-04-25 17:14 | 33.36578 | 131.77822 | 28355 ft | 434 kts | 13° |
| 2026-04-25 17:14 | 33.38459 | 131.78767 | 28053 ft | 434 kts | 13° |
| 2026-04-25 17:15 | 33.41237 | 131.80175 | 27667 ft | 431 kts | 14° |
| 2026-04-25 17:15 | 33.43959 | 131.81568 | 27324 ft | 428 kts | 14° |
| 2026-04-25 17:15 | 33.46675 | 131.82966 | 27059 ft | 423 kts | 15° |
| 2026-04-25 17:15 | 33.49364 | 131.84355 | 26835 ft | 416 kts | 15° |
| 2026-04-25 17:16 | 33.52018 | 131.85726 | 26474 ft | 411 kts | 15° |
| 2026-04-25 17:16 | 33.54597 | 131.87056 | 26020 ft | 408 kts | 16° |
| 2026-04-25 17:16 | 33.57197 | 131.88397 | 25578 ft | 405 kts | 16° |
| 2026-04-25 17:16 | 33.59770 | 131.89725 | 25181 ft | 400 kts | 17° |
| 2026-04-25 17:17 | 33.62318 | 131.91042 | 24806 ft | 395 kts | 17° |
| 2026-04-25 17:17 | 33.64822 | 131.92337 | 24492 ft | 389 kts | 18° |
| 2026-04-25 17:17 | 33.67291 | 131.93615 | 24107 ft | 385 kts | 18° |
| 2026-04-25 17:17 | 33.69740 | 131.94881 | 23709 ft | 381 kts | 18° |
| 2026-04-25 17:18 | 33.72165 | 131.96137 | 23247 ft | 377 kts | 19° |
| 2026-04-25 17:18 | 33.74565 | 131.97381 | 22784 ft | 374 kts | 19° |
| 2026-04-25 17:18 | 33.76939 | 131.98614 | 22327 ft | 371 kts | 19° |
| 2026-04-25 17:18 | 33.79311 | 131.99852 | 21885 ft | 368 kts | 19° |
| 2026-04-25 17:19 | 33.81612 | 132.01050 | 21508 ft | 363 kts | 19° |
| 2026-04-25 17:19 | 33.83922 | 132.02248 | 21030 ft | 361 kts | 19° |
| 2026-04-25 17:19 | 33.86227 | 132.03433 | 20564 ft | 359 kts | 19° |
| 2026-04-25 17:19 | 33.88513 | 132.04618 | 20143 ft | 356 kts | 19° |
| 2026-04-25 17:20 | 33.90778 | 132.05797 | 19719 ft | 353 kts | 20° |
| 2026-04-25 17:20 | 33.93028 | 132.06971 | 19333 ft | 351 kts | 20° |
| 2026-04-25 17:20 | 33.95263 | 132.08133 | 18951 ft | 348 kts | 20° |
| 2026-04-25 17:20 | 33.97488 | 132.09286 | 18542 ft | 346 kts | 20° |
| 2026-04-25 17:21 | 33.99691 | 132.10429 | 18106 ft | 344 kts | 20° |
| 2026-04-25 17:21 | 34.01876 | 132.11564 | 17660 ft | 340 kts | 20° |
| 2026-04-25 17:21 | 34.04042 | 132.12690 | 17233 ft | 337 kts | 21° |
| 2026-04-25 17:21 | 34.06191 | 132.13808 | 16791 ft | 334 kts | 21° |
| 2026-04-25 17:22 | 34.08132 | 132.15257 | 16340 ft | 335 kts | 44° |
| 2026-04-25 17:22 | 34.09150 | 132.16697 | 16055 ft | 332 kts | 53° |
| 2026-04-25 17:22 | 34.10896 | 132.19682 | 15664 ft | 323 kts | 56° |
| 2026-04-25 17:22 | 34.12155 | 132.21917 | 15245 ft | 322 kts | 56° |
| 2026-04-25 17:23 | 34.13417 | 132.24143 | 14868 ft | 319 kts | 56° |
| 2026-04-25 17:23 | 34.14667 | 132.26337 | 14543 ft | 315 kts | 56° |
| 2026-04-25 17:23 | 34.15903 | 132.28498 | 14185 ft | 312 kts | 56° |
| 2026-04-25 17:23 | 34.17136 | 132.30649 | 13808 ft | 309 kts | 56° |
| 2026-04-25 17:24 | 34.18341 | 132.32748 | 13398 ft | 307 kts | 56° |
| 2026-04-25 17:24 | 34.19571 | 132.34887 | 12965 ft | 305 kts | 56° |
| 2026-04-25 17:24 | 34.20764 | 132.36962 | 12570 ft | 304 kts | 56° |
| 2026-04-25 17:24 | 34.21959 | 132.39042 | 12236 ft | 300 kts | 56° |
| 2026-04-25 17:25 | 34.23150 | 132.41117 | 11935 ft | 299 kts | 56° |
| 2026-04-25 17:25 | 34.24326 | 132.43191 | 11656 ft | 298 kts | 56° |
| 2026-04-25 17:25 | 34.25502 | 132.45245 | 11355 ft | 295 kts | 56° |
| 2026-04-25 17:25 | 34.26667 | 132.47273 | 10985 ft | 293 kts | 55° |
| 2026-04-25 17:26 | 34.27829 | 132.49293 | 10573 ft | 292 kts | 56° |
| 2026-04-25 17:26 | 34.28990 | 132.51314 | 10180 ft | 291 kts | 55° |
| 2026-04-25 17:26 | 34.30148 | 132.53321 | 9797 ft | 290 kts | 55° |
| 2026-04-25 17:26 | 34.31296 | 132.55311 | 9395 ft | 287 kts | 55° |
| 2026-04-25 17:27 | 34.32437 | 132.57287 | 9033 ft | 284 kts | 56° |
| 2026-04-25 17:27 | 34.33541 | 132.59220 | 8657 ft | 281 kts | 56° |
| 2026-04-25 17:27 | 34.34640 | 132.61147 | 8363 ft | 274 kts | 56° |
| 2026-04-25 17:27 | 34.35363 | 132.62414 | 8237 ft | 267 kts | 56° |
| 2026-04-25 17:28 | 34.36724 | 132.64795 | 7985 ft | 255 kts | 56° |
| 2026-04-25 17:28 | 34.37720 | 132.66539 | 7726 ft | 248 kts | 57° |
| 2026-04-25 17:28 | 34.38704 | 132.68265 | 7187 ft | 254 kts | 57° |
| 2026-04-25 17:28 | 34.39708 | 132.70031 | 6571 ft | 254 kts | 58° |
| 2026-04-25 17:29 | 34.40715 | 132.71803 | 5867 ft | 256 kts | 58° |
| 2026-04-25 17:29 | 34.41726 | 132.73580 | 5133 ft | 257 kts | 58° |
| 2026-04-25 17:29 | 34.42731 | 132.75347 | 4392 ft | 258 kts | 58° |
| 2026-04-25 17:29 | 34.43564 | 132.77250 | 3598 ft | 255 kts | 79° |
| 2026-04-25 17:30 | 34.43656 | 132.79372 | 2927 ft | 250 kts | 94° |
| 2026-04-25 17:30 | 34.43603 | 132.81427 | 2547 ft | 235 kts | 92° |
| 2026-04-25 17:30 | 34.43604 | 132.83353 | 2234 ft | 222 kts | 91° |
| 2026-04-25 17:30 | 34.43604 | 132.85158 | 1951 ft | 207 kts | 90° |
| 2026-04-25 17:31 | 34.43603 | 132.86823 | 1715 ft | 192 kts | 89° |
| 2026-04-25 17:31 | 34.43603 | 132.88375 | 1534 ft | 174 kts | 89° |
| 2026-04-25 17:31 | 34.43601 | 132.89780 | 1259 ft | 163 kts | 89° |
| 2026-04-25 17:31 | 34.43606 | 132.91092 | 1111 ft | 143 kts | 88° |
| 2026-04-25 17:32 | 34.43581 | 132.92177 | 1091 ft | 114 kts | 85° |
| 2026-04-25 17:32 | 34.43601 | 132.92966 | 1089 ft | 56 kts | 90° |
| 2026-04-25 17:32 | 34.43603 | 132.93333 | 1088 ft | 42 kts | 90° |
| 2026-04-25 17:32 | 34.43648 | 132.93541 | 1086 ft | 16 kts | 29° |
| 2026-04-25 17:33 | 34.43751 | 132.93526 | 1087 ft | 16 kts | 313° |
| 2026-04-25 17:33 | 34.43767 | 132.93400 | 1087 ft | 15 kts | 269° |
| 2026-04-25 17:33 | 34.43767 | 132.93331 | 1088 ft | 0 kts | 272° |
| 2026-04-25 17:34 | 34.43768 | 132.93295 | 1088 ft | 11 kts | 272° |
| 2026-04-25 17:34 | 34.43770 | 132.93152 | 1088 ft | 22 kts | 270° |
| 2026-04-25 17:34 | 34.43766 | 132.92969 | 1089 ft | 21 kts | 269° |
| 2026-04-25 17:35 | 34.43769 | 132.92794 | 1089 ft | 21 kts | 269° |
| 2026-04-25 17:35 | 34.43764 | 132.92622 | 1089 ft | 20 kts | 268° |
| 2026-04-25 17:35 | 34.43766 | 132.92456 | 1089 ft | 19 kts | 269° |
| 2026-04-25 17:35 | 34.43766 | 132.92294 | 1090 ft | 19 kts | 271° |
| 2026-04-25 17:36 | 34.43781 | 132.92158 | 1090 ft | 12 kts | 296° |
| 2026-04-25 17:36 | 34.43838 | 132.92083 | 1090 ft | 12 kts | 334° |
| 2026-04-25 17:36 | 34.43909 | 132.92081 | 1090 ft | 7 kts | 0° |
| 2026-04-25 17:36 | 34.43912 | 132.92081 | 1090 ft | 0 kts | 0° |